createdAt,value
2023-05-02T00:01:17.840Z,60.39
2023-05-02T00:03:45.056Z,60.64
2023-05-02T00:06:12.846Z,61.01
2023-05-02T00:08:40.514Z,61.35
2023-05-02T00:11:07.506Z,61.36
2023-05-02T00:13:34.498Z,61.54
2023-05-02T00:16:01.685Z,61.27
2023-05-02T00:18:28.586Z,61.13
2023-05-02T00:20:56.651Z,61.09
2023-05-02T00:23:24.196Z,60.95
2023-05-02T00:25:51.361Z,60.95
2023-05-02T00:28:18.811Z,61.08
2023-05-02T00:30:46.317Z,60.87
2023-05-02T00:33:15.142Z,61.10
2023-05-02T00:35:42.414Z,61.33
2023-05-02T00:38:09.486Z,61.44
2023-05-02T00:40:46.486Z,61.63
2023-05-02T00:43:14.138Z,62.29
2023-05-02T00:45:42.325Z,62.33
2023-05-02T00:48:09.704Z,62.59
2023-05-02T00:50:41.156Z,63.17
2023-05-02T00:53:08.897Z,63.33
2023-05-02T00:55:35.918Z,63.84
2023-05-02T00:58:12.054Z,63.89
2023-05-02T01:01:20.898Z,64.01
2023-05-02T01:04:00.223Z,64.14
2023-05-02T01:06:44.885Z,64.17
2023-05-02T01:09:37.324Z,64.14
2023-05-02T01:12:43.583Z,64.39
2023-05-02T01:15:12.902Z,64.85
2023-05-02T01:17:39.900Z,64.56
2023-05-02T01:20:09.192Z,64.45
2023-05-02T01:22:36.152Z,64.28
2023-05-02T01:25:20.182Z,64.47
2023-05-02T01:27:54.711Z,64.40
2023-05-02T01:30:21.835Z,64.26
2023-05-02T01:32:48.849Z,64.23
2023-05-02T01:35:16.586Z,64.18
2023-05-02T01:37:44.922Z,64.15
2023-05-02T01:40:12.359Z,64.19
2023-05-02T01:42:39.354Z,64.21
2023-05-02T01:45:07.443Z,64.03
2023-05-02T01:47:36.125Z,64.08
2023-05-02T01:50:08.062Z,63.96
2023-05-02T01:52:35.646Z,64.10
2023-05-02T01:55:02.679Z,64.19
2023-05-02T01:57:29.792Z,64.24
2023-05-02T01:59:57.463Z,64.05
2023-05-02T02:02:27.330Z,64.38
2023-05-02T02:04:57.529Z,64.53
2023-05-02T02:07:24.541Z,64.70
2023-05-02T02:09:51.774Z,64.71
2023-05-02T02:12:25.992Z,64.67
2023-05-02T02:15:21.224Z,64.71
2023-05-02T02:17:50.575Z,64.96
2023-05-02T02:20:17.617Z,64.97
2023-05-02T02:22:44.639Z,65.10
2023-05-02T02:25:12.515Z,65.12
2023-05-02T02:27:39.553Z,65.40
2023-05-02T02:30:07.774Z,65.42
2023-05-02T02:32:34.878Z,65.50
2023-05-02T02:35:03.209Z,65.28
2023-05-02T02:37:35.684Z,65.61
2023-05-02T02:40:09.122Z,65.56
2023-05-02T02:43:04.395Z,66.02
2023-05-02T02:45:38.527Z,66.15
2023-05-02T02:48:33.535Z,66.08
2023-05-02T02:51:14.078Z,66.09
2023-05-02T02:53:55.848Z,65.88
2023-05-02T02:56:36.611Z,65.89
2023-05-02T02:59:06.814Z,66.04
2023-05-02T03:01:33.808Z,66.21
2023-05-02T03:04:00.943Z,66.32
2023-05-02T03:06:27.950Z,66.37
2023-05-02T03:08:56.620Z,66.64
2023-05-02T03:11:24.102Z,66.47
2023-05-02T03:13:53.008Z,66.44
2023-05-02T03:16:34.265Z,66.38
2023-05-02T03:19:01.478Z,66.44
2023-05-02T03:21:28.514Z,66.24
2023-05-02T03:23:56.583Z,66.16
2023-05-02T03:26:23.616Z,66.08
2023-05-02T03:28:51.708Z,66.06
2023-05-02T03:31:20.431Z,66.44
2023-05-02T03:33:48.382Z,66.74
2023-05-02T03:36:16.384Z,66.66
2023-05-02T03:38:43.477Z,66.63
2023-05-02T03:41:11.006Z,67.08
2023-05-02T03:43:38.691Z,67.04
2023-05-02T03:46:09.756Z,67.06
2023-05-02T03:48:37.760Z,66.88
2023-05-02T03:51:05.827Z,66.67
2023-05-02T03:53:38.694Z,66.42
2023-05-02T03:56:08.128Z,65.95
2023-05-02T03:58:41.456Z,64.35
2023-05-02T04:01:16.500Z,62.44
2023-05-02T04:03:46.260Z,59.84
2023-05-02T04:06:15.186Z,56.81
2023-05-02T04:08:44.536Z,54.20
2023-05-02T04:11:11.959Z,51.60
2023-05-02T04:13:39.142Z,49.07
2023-05-02T04:16:06.335Z,47.03
2023-05-02T04:18:35.149Z,44.96
2023-05-02T04:21:03.715Z,43.15
2023-05-02T04:23:31.333Z,41.56
2023-05-02T04:26:01.225Z,39.41
2023-05-02T04:28:43.870Z,37.49
2023-05-02T04:31:14.666Z,36.52
2023-05-02T04:33:43.328Z,35.59
2023-05-02T04:36:11.285Z,33.98
2023-05-02T04:38:41.610Z,32.52
2023-05-02T04:41:09.663Z,31.08
2023-05-02T04:43:44.617Z,31.00
2023-05-02T04:46:13.417Z,31.18
2023-05-02T04:48:42.396Z,31.18
2023-05-02T04:51:10.475Z,30.91
2023-05-02T04:53:38.053Z,30.10
2023-05-02T04:56:05.552Z,30.21
2023-05-02T04:58:35.627Z,29.41
2023-05-02T05:01:06.149Z,28.22
2023-05-02T05:03:36.273Z,28.18
2023-05-02T05:06:03.598Z,27.71
2023-05-02T05:08:31.110Z,27.86
2023-05-02T05:10:58.121Z,28.23
2023-05-02T05:13:25.623Z,28.30
2023-05-02T05:15:53.241Z,28.50
2023-05-02T05:18:23.969Z,28.86
2023-05-02T05:20:50.942Z,28.93
2023-05-02T05:23:17.941Z,29.13
2023-05-02T05:25:45.955Z,28.68
2023-05-02T05:28:15.619Z,28.79
2023-05-02T05:30:42.700Z,28.24
2023-05-02T05:33:12.269Z,28.46
2023-05-02T05:35:39.427Z,28.37
2023-05-02T05:38:07.050Z,28.64
2023-05-02T05:40:36.362Z,28.10
2023-05-02T05:43:04.184Z,28.29
2023-05-02T05:45:34.764Z,28.46
2023-05-02T05:48:01.799Z,28.27
2023-05-02T05:50:31.713Z,28.18
2023-05-02T05:52:58.774Z,28.19
2023-05-02T05:55:27.860Z,28.23
2023-05-02T05:57:55.120Z,28.38
2023-05-02T06:00:22.322Z,28.20
2023-05-02T06:02:50.070Z,28.23
2023-05-02T06:05:24.928Z,27.93
2023-05-02T06:07:52.269Z,27.72
2023-05-02T06:10:19.248Z,27.89
2023-05-02T06:12:49.148Z,27.87
2023-05-02T06:15:18.384Z,27.85
2023-05-02T06:17:45.382Z,28.13
2023-05-02T06:20:12.538Z,27.87
2023-05-02T06:22:40.225Z,27.80
2023-05-02T06:25:09.016Z,27.61
2023-05-02T06:27:36.012Z,27.46
2023-05-02T06:30:03.554Z,27.25
2023-05-02T06:32:34.174Z,27.00
2023-05-02T06:35:01.942Z,26.98
2023-05-02T06:37:33.490Z,26.39
2023-05-02T06:40:00.699Z,26.13
2023-05-02T06:42:29.598Z,26.34
2023-05-02T06:44:56.657Z,26.58
2023-05-02T06:47:24.559Z,26.78
2023-05-02T06:49:53.068Z,26.72
2023-05-02T06:52:20.134Z,26.44
2023-05-02T06:54:47.130Z,26.39
2023-05-02T06:57:14.133Z,26.42
2023-05-02T06:59:43.193Z,26.61
2023-05-02T07:02:11.523Z,26.18
2023-05-02T07:04:38.718Z,26.34
2023-05-02T07:07:06.339Z,26.26
2023-05-02T07:09:33.362Z,26.31
2023-05-02T07:12:01.087Z,25.52
2023-05-02T07:14:28.150Z,25.08
2023-05-02T07:16:55.307Z,25.30
2023-05-02T07:19:22.908Z,25.62
2023-05-02T07:21:50.626Z,25.30
2023-05-02T07:24:17.615Z,25.06
2023-05-02T07:26:44.805Z,24.77
2023-05-02T07:29:11.843Z,24.37
2023-05-02T07:31:39.676Z,24.13
2023-05-02T07:34:06.817Z,23.43
2023-05-02T07:36:34.012Z,23.54
2023-05-02T07:39:01.063Z,23.66
2023-05-02T07:41:28.050Z,23.83
2023-05-02T07:43:56.004Z,24.00
2023-05-02T07:46:23.660Z,23.86
2023-05-02T07:48:51.024Z,23.83
2023-05-02T07:51:20.935Z,23.79
2023-05-02T07:53:50.478Z,23.84
2023-05-02T07:56:17.554Z,24.15
2023-05-02T07:58:44.599Z,24.32
2023-05-02T08:01:11.715Z,24.81
2023-05-02T08:03:38.890Z,24.64
2023-05-02T08:06:05.986Z,24.00
2023-05-02T08:08:33.051Z,23.80
2023-05-02T08:11:00.283Z,23.96
2023-05-02T08:13:27.564Z,23.40
2023-05-02T08:15:58.422Z,23.78
2023-05-02T08:18:25.917Z,24.28
2023-05-02T08:20:56.100Z,24.39
2023-05-02T08:23:23.026Z,24.13
2023-05-02T08:25:50.011Z,23.73
2023-05-02T08:28:17.022Z,23.71
2023-05-02T08:30:45.410Z,23.89
2023-05-02T08:33:13.030Z,24.29
2023-05-02T08:35:40.638Z,24.29
2023-05-02T08:38:07.853Z,23.65
2023-05-02T08:40:42.077Z,23.57
2023-05-02T08:43:11.222Z,23.48
2023-05-02T08:45:42.835Z,23.47
2023-05-02T08:48:11.835Z,23.55
2023-05-02T08:50:48.358Z,23.34
2023-05-02T08:53:15.693Z,22.93
2023-05-02T08:55:43.163Z,22.85
2023-05-02T08:58:12.798Z,22.87
2023-05-02T09:00:42.208Z,22.84
2023-05-02T09:03:25.079Z,22.46
2023-05-02T09:05:53.875Z,22.50
2023-05-02T09:08:22.929Z,22.11
2023-05-02T09:10:51.460Z,21.73
2023-05-02T09:13:38.585Z,22.06
2023-05-02T09:16:07.329Z,21.86
2023-05-02T09:18:41.921Z,21.72
2023-05-02T09:21:10.773Z,22.09
2023-05-02T09:23:40.796Z,21.97
2023-05-02T09:26:31.576Z,22.27
2023-05-02T09:29:05.520Z,22.21
2023-05-02T09:34:13.696Z,22.30
2023-05-02T09:36:42.451Z,22.89
2023-05-02T09:39:17.572Z,22.25
2023-05-02T09:41:45.651Z,22.51
2023-05-02T09:44:20.419Z,22.52
2023-05-02T09:46:49.064Z,22.15
2023-05-02T09:49:19.100Z,22.19
2023-05-02T09:51:47.440Z,21.98
2023-05-02T09:54:16.178Z,21.71
2023-05-02T09:56:59.036Z,21.35
2023-05-02T09:59:26.027Z,21.25
2023-05-02T10:02:03.609Z,21.13
2023-05-02T10:04:32.206Z,21.41
2023-05-02T10:06:59.661Z,21.50
2023-05-02T10:09:27.583Z,21.17
2023-05-02T10:11:55.347Z,20.51
2023-05-02T10:14:23.938Z,21.15
2023-05-02T10:16:55.978Z,21.34
2023-05-02T10:20:12.374Z,21.20
2023-05-02T10:22:39.386Z,20.34
2023-05-02T10:25:06.673Z,20.05
2023-05-02T10:27:33.817Z,19.54
2023-05-02T10:30:01.525Z,19.01
2023-05-02T10:32:32.504Z,18.85
2023-05-02T10:35:05.539Z,18.36
2023-05-02T10:37:36.947Z,17.89
2023-05-02T10:40:04.316Z,17.47
2023-05-02T10:42:31.367Z,17.62
2023-05-02T10:44:59.174Z,17.85
2023-05-02T10:47:27.183Z,17.44
2023-05-02T10:49:58.137Z,17.43
2023-05-02T10:52:36.083Z,17.71
2023-05-02T10:55:22.384Z,17.89
2023-05-02T10:58:01.572Z,17.24
2023-05-02T11:00:33.805Z,17.61
2023-05-02T11:03:01.594Z,17.72
2023-05-02T11:05:28.888Z,17.93
2023-05-02T11:08:20.158Z,18.34
2023-05-02T11:10:48.148Z,18.52
2023-05-02T11:13:15.744Z,18.04
2023-05-02T11:15:42.650Z,17.49
2023-05-02T11:18:12.133Z,17.71
2023-05-02T11:20:40.165Z,18.02
2023-05-02T11:23:22.264Z,17.85
2023-05-02T11:25:50.485Z,17.44
2023-05-02T11:28:39.763Z,17.47
2023-05-02T11:31:10.996Z,17.74
2023-05-02T11:33:38.112Z,17.48
2023-05-02T11:36:05.396Z,17.40
2023-05-02T11:38:37.257Z,17.69
2023-05-02T11:41:04.608Z,17.75
2023-05-02T11:43:32.604Z,17.27
2023-05-02T11:46:02.005Z,16.73
2023-05-02T11:48:29.594Z,16.69
2023-05-02T11:50:58.394Z,16.65
2023-05-02T11:53:26.924Z,16.56
2023-05-02T11:55:56.268Z,16.62
2023-05-02T11:58:30.081Z,16.31
2023-05-02T12:00:57.403Z,16.18
2023-05-02T12:03:32.321Z,15.83
2023-05-02T12:06:12.658Z,15.83
2023-05-02T12:08:40.876Z,15.66
2023-05-02T12:11:08.082Z,15.51
2023-05-02T12:13:35.156Z,15.53
2023-05-02T12:16:02.340Z,15.59
2023-05-02T12:18:29.525Z,15.18
2023-05-02T12:20:56.746Z,14.93
2023-05-02T12:23:24.858Z,14.92
2023-05-02T12:25:51.900Z,14.94
2023-05-02T12:28:20.004Z,14.65
2023-05-02T12:30:51.308Z,14.86
2023-05-02T12:33:18.716Z,14.67
2023-05-02T12:35:47.529Z,14.19
2023-05-02T12:38:16.129Z,13.97
2023-05-02T12:41:01.579Z,13.95
2023-05-02T12:43:28.555Z,13.82
2023-05-02T12:46:11.898Z,14.05
2023-05-02T12:48:38.957Z,13.67
2023-05-02T12:51:06.099Z,13.36
2023-05-02T12:53:44.034Z,13.56
2023-05-02T12:56:11.473Z,13.75
2023-05-02T12:58:43.228Z,13.44
2023-05-02T13:01:10.786Z,13.32
2023-05-02T13:03:38.026Z,13.37
2023-05-02T13:06:05.408Z,13.09
2023-05-02T13:08:33.806Z,12.90
2023-05-02T13:11:02.961Z,12.79
2023-05-02T13:13:30.485Z,12.67
2023-05-02T13:15:58.622Z,12.52
2023-05-02T13:18:26.079Z,12.44
2023-05-02T13:20:53.186Z,12.02
2023-05-02T13:23:20.352Z,12.09
2023-05-02T13:25:47.355Z,11.73
2023-05-02T13:28:14.434Z,11.64
2023-05-02T13:30:41.626Z,11.44
2023-05-02T13:33:09.268Z,11.28
2023-05-02T13:35:36.598Z,11.17
2023-05-02T13:38:03.920Z,11.15
2023-05-02T13:40:31.070Z,11.18
2023-05-02T13:42:58.258Z,11.23
2023-05-02T13:45:25.292Z,11.20
2023-05-02T13:47:52.348Z,11.43
2023-05-02T13:50:19.988Z,11.47
2023-05-02T13:52:49.075Z,11.16
2023-05-02T13:55:16.627Z,11.42
2023-05-02T13:57:43.718Z,11.26
2023-05-02T14:00:11.598Z,11.43
2023-05-02T14:02:39.395Z,11.35
2023-05-02T14:05:07.410Z,11.02
2023-05-02T14:07:34.883Z,11.09
2023-05-02T14:10:02.796Z,11.37
2023-05-02T14:12:30.701Z,11.55
2023-05-02T14:14:57.746Z,12.00
2023-05-02T14:17:26.105Z,12.46
2023-05-02T14:19:53.095Z,13.32
2023-05-02T14:22:20.134Z,13.94
2023-05-02T14:24:47.821Z,14.20
2023-05-02T14:27:18.430Z,14.74
2023-05-02T14:29:46.185Z,15.14
2023-05-02T14:32:13.694Z,15.53
2023-05-02T14:34:42.059Z,15.93
2023-05-02T14:37:09.375Z,16.38
2023-05-02T14:39:40.300Z,16.84
2023-05-02T14:42:07.978Z,17.31
2023-05-02T14:44:36.711Z,17.58
2023-05-02T14:47:03.827Z,17.87
2023-05-02T14:49:31.635Z,18.00
2023-05-02T14:51:59.174Z,18.15
2023-05-02T14:54:28.843Z,18.23
2023-05-02T14:56:56.082Z,18.41
2023-05-02T14:59:25.398Z,18.23
2023-05-02T15:01:53.287Z,18.01
2023-05-02T15:04:20.723Z,17.49
2023-05-02T15:06:48.334Z,17.23
2023-05-02T15:09:16.372Z,17.08
2023-05-02T15:11:44.905Z,17.17
2023-05-02T15:14:11.978Z,17.32
2023-05-02T15:16:39.838Z,17.27
2023-05-02T15:19:06.936Z,16.97
2023-05-02T15:21:35.276Z,16.55
2023-05-02T15:24:02.746Z,15.98
2023-05-02T15:26:30.520Z,15.89
2023-05-02T15:29:00.265Z,15.50
2023-05-02T15:31:28.145Z,15.34
2023-05-02T15:33:55.373Z,15.17
2023-05-02T15:36:23.299Z,15.37
2023-05-02T15:38:50.775Z,15.17
2023-05-02T15:41:18.262Z,15.30
2023-05-02T15:43:45.335Z,15.78
2023-05-02T15:46:12.740Z,16.23
2023-05-02T15:48:40.160Z,16.59
2023-05-02T15:51:09.245Z,17.25
2023-05-02T15:53:39.762Z,17.95
2023-05-02T15:56:09.550Z,18.40
2023-05-02T15:58:36.636Z,18.85
2023-05-02T16:01:04.924Z,19.32
2023-05-02T16:03:32.781Z,19.60
2023-05-02T16:06:00.250Z,19.92
2023-05-02T16:08:27.938Z,20.23
2023-05-02T16:10:55.952Z,20.61
2023-05-02T16:13:23.236Z,20.93
2023-05-02T16:15:52.852Z,21.26
2023-05-02T16:18:20.205Z,21.68
2023-05-02T16:20:47.925Z,22.24
2023-05-02T16:23:15.075Z,22.74
2023-05-02T16:25:42.038Z,22.99
2023-05-02T16:28:09.064Z,23.08
2023-05-02T16:30:37.242Z,23.30
2023-05-02T16:33:04.360Z,23.44
2023-05-02T16:35:31.973Z,23.58
2023-05-02T16:37:58.898Z,23.81
2023-05-02T16:40:27.469Z,24.10
2023-05-02T16:42:55.901Z,24.26
2023-05-02T16:45:23.356Z,24.51
2023-05-02T16:47:50.551Z,24.88
2023-05-02T16:50:18.987Z,25.14
2023-05-02T16:52:45.986Z,25.30
2023-05-02T16:55:12.956Z,25.47
2023-05-02T16:57:39.901Z,25.69
2023-05-02T17:00:10.539Z,25.81
2023-05-02T17:02:37.631Z,26.05
2023-05-02T17:05:05.591Z,26.31
2023-05-02T17:07:32.631Z,26.48
2023-05-02T17:09:59.790Z,26.71
2023-05-02T17:12:27.349Z,26.90
2023-05-02T17:14:54.546Z,27.16
2023-05-02T17:17:23.630Z,27.41
2023-05-02T17:19:51.427Z,27.66
2023-05-02T17:22:19.160Z,27.90
2023-05-02T17:24:48.637Z,28.19
2023-05-02T17:27:16.640Z,28.40
2023-05-02T17:29:46.983Z,28.60
2023-05-02T17:32:15.932Z,28.73
2023-05-02T17:34:46.032Z,29.01
2023-05-02T17:37:13.170Z,29.24
2023-05-02T17:39:40.149Z,29.65
2023-05-02T17:42:07.327Z,30.05
2023-05-02T17:44:37.185Z,30.36
2023-05-02T17:47:04.608Z,30.66
2023-05-02T17:49:32.265Z,31.25
2023-05-02T17:51:59.299Z,31.50
2023-05-02T17:54:26.354Z,32.42
2023-05-02T17:56:53.477Z,33.35
2023-05-02T17:59:20.750Z,34.15
2023-05-02T18:01:47.768Z,34.63
2023-05-02T18:04:15.656Z,35.51
2023-05-02T18:06:42.741Z,35.67
2023-05-02T18:09:09.901Z,35.33
2023-05-02T18:11:40.273Z,35.84
2023-05-02T18:14:07.524Z,35.97
2023-05-02T18:16:36.489Z,35.54
2023-05-02T18:19:04.604Z,35.08
2023-05-02T18:21:34.857Z,34.24
2023-05-02T18:24:02.098Z,33.77
2023-05-02T18:26:29.071Z,33.88
2023-05-02T18:28:56.075Z,34.07
2023-05-02T18:31:23.933Z,34.19
2023-05-02T18:33:51.698Z,34.28
2023-05-02T18:36:27.384Z,34.46
2023-05-02T18:38:56.411Z,34.56
2023-05-02T18:41:23.624Z,34.55
2023-05-02T18:43:50.622Z,34.58
2023-05-02T18:46:17.760Z,34.60
2023-05-02T18:48:44.821Z,34.75
2023-05-02T18:51:12.332Z,34.79
2023-05-02T18:53:39.330Z,34.91
2023-05-02T18:56:13.189Z,34.86
2023-05-02T18:58:41.158Z,35.00
2023-05-02T19:01:15.332Z,35.21
2023-05-02T19:03:49.176Z,35.20
2023-05-02T19:06:19.878Z,35.34
2023-05-02T19:08:47.969Z,35.47
2023-05-02T19:11:17.660Z,35.54
2023-05-02T19:13:45.873Z,35.65
2023-05-02T19:16:13.832Z,35.78
2023-05-02T19:18:44.209Z,35.86
2023-05-02T19:21:12.937Z,35.76
2023-05-02T19:23:43.483Z,35.88
2023-05-02T19:26:16.357Z,36.09
2023-05-02T19:31:28.749Z,36.58
2023-05-02T19:33:58.232Z,36.84
2023-05-02T19:36:27.937Z,37.51
2023-05-02T19:38:55.088Z,37.58
2023-05-02T19:41:22.968Z,37.27
2023-05-02T19:43:55.991Z,37.42
2023-05-02T19:46:23.970Z,37.95
2023-05-02T19:48:52.526Z,37.89
2023-05-02T19:51:25.646Z,37.66
2023-05-02T19:53:53.971Z,37.38
2023-05-02T19:56:21.811Z,37.31
2023-05-02T19:58:48.775Z,37.12
2023-05-02T20:01:16.100Z,36.88
2023-05-02T20:03:43.395Z,36.72
2023-05-02T20:06:10.591Z,36.71
2023-05-02T20:08:37.596Z,36.55
2023-05-02T20:11:05.313Z,36.50
2023-05-02T20:13:32.251Z,36.46
2023-05-02T20:15:59.297Z,36.39
2023-05-02T20:18:26.283Z,36.41
2023-05-02T20:20:53.274Z,36.50
2023-05-02T20:23:20.228Z,36.52
2023-05-02T20:25:47.262Z,36.53
2023-05-02T20:28:14.237Z,36.66
2023-05-02T20:30:42.104Z,36.78
2023-05-02T20:33:15.467Z,36.94
2023-05-02T20:35:44.026Z,36.92
2023-05-02T20:38:11.268Z,36.96
2023-05-02T20:40:39.907Z,36.96
2023-05-02T20:43:07.554Z,37.03
2023-05-02T20:45:34.822Z,37.14
2023-05-02T20:48:01.904Z,37.02
2023-05-02T20:50:28.985Z,37.11
2023-05-02T20:52:56.687Z,37.18
2023-05-02T20:55:24.488Z,37.33
2023-05-02T20:57:53.484Z,37.35
2023-05-02T21:00:23.629Z,37.36
2023-05-02T21:02:50.868Z,37.46
2023-05-02T21:05:18.218Z,37.50
2023-05-02T21:07:45.231Z,37.61
2023-05-02T21:10:12.307Z,37.72
2023-05-02T21:12:39.522Z,37.80
2023-05-02T21:15:07.720Z,37.86
2023-05-02T21:17:34.846Z,37.94
2023-05-02T21:20:02.068Z,37.97
2023-05-02T21:22:29.449Z,38.11
2023-05-02T21:24:56.560Z,38.09
2023-05-02T21:27:23.691Z,38.20
2023-05-02T21:29:50.930Z,38.13
2023-05-02T21:32:17.956Z,38.23
2023-05-02T21:34:44.933Z,38.31
2023-05-02T21:37:11.912Z,38.47
2023-05-02T21:39:39.040Z,38.49
2023-05-02T21:42:06.280Z,38.49
2023-05-02T21:44:33.254Z,38.55
2023-05-02T21:47:00.378Z,38.65
2023-05-02T21:49:29.545Z,38.65
2023-05-02T21:51:58.393Z,38.83
2023-05-02T21:54:25.601Z,38.85
2023-05-02T21:56:55.661Z,39.01
2023-05-02T21:59:22.608Z,39.16
2023-05-02T22:01:49.634Z,39.10
2023-05-02T22:04:17.625Z,39.35
2023-05-02T22:06:51.829Z,39.36
2023-05-02T22:09:20.882Z,39.54
2023-05-02T22:11:47.933Z,39.71
2023-05-02T22:14:14.977Z,39.91
2023-05-02T22:16:41.998Z,40.06
2023-05-02T22:19:17.760Z,40.24
2023-05-02T22:21:44.764Z,40.32
2023-05-02T22:24:11.730Z,40.29
2023-05-02T22:26:38.689Z,40.49
2023-05-02T22:29:05.636Z,40.47
2023-05-02T22:31:32.608Z,40.54
2023-05-02T22:33:59.578Z,40.60
2023-05-02T22:36:27.925Z,40.79
2023-05-02T22:38:55.219Z,40.88
2023-05-02T22:41:22.174Z,40.94
2023-05-02T22:43:49.137Z,41.05
2023-05-02T22:46:16.250Z,41.19
2023-05-02T22:48:43.228Z,41.24
2023-05-02T22:51:10.221Z,41.33
2023-05-02T22:53:37.146Z,41.50
2023-05-02T22:56:04.535Z,41.67
2023-05-02T22:58:31.615Z,41.59
2023-05-02T23:00:58.583Z,41.88
2023-05-02T23:03:25.604Z,42.05
2023-05-02T23:05:52.617Z,42.08
2023-05-02T23:08:20.057Z,42.07
2023-05-02T23:10:47.145Z,42.09
2023-05-02T23:13:14.104Z,42.18
2023-05-02T23:15:41.717Z,42.40
2023-05-02T23:18:08.794Z,42.83
2023-05-02T23:20:35.873Z,42.70
2023-05-02T23:23:03.344Z,42.72
2023-05-02T23:25:30.303Z,42.73
2023-05-02T23:27:57.301Z,42.92
2023-05-02T23:30:24.225Z,42.89
2023-05-02T23:32:51.823Z,43.02
2023-05-02T23:35:18.923Z,43.17
2023-05-02T23:37:45.930Z,43.38
2023-05-02T23:40:13.621Z,43.45
2023-05-02T23:42:41.050Z,43.62
2023-05-02T23:45:09.151Z,43.84
2023-05-02T23:47:36.608Z,43.99
2023-05-02T23:50:07.422Z,44.08
2023-05-02T23:52:34.355Z,44.27
2023-05-02T23:55:01.386Z,44.44
2023-05-02T23:57:31.372Z,44.56
2023-05-02T23:59:58.319Z,44.78
